Capita Jack — EBUF — position and weather

sailwx.info

Track history (hours):
 
Tides and Currents Weather Stations Pressure Air Temp Water Temp Dewpoint Dewpoint Depression Visibility Wind Speed Wind Dir Waves Ship Positions

Capita Jack

Last reported at 2018-Jul-19 09:01 UTC. Time now 2018-Jul-19 09:49 UTC.
Position N 38°54' E 001°30'.

Length 21 m.

Type: Passenger vessel. MMSI: 224147000.

Date/timePositionNaut miles runAvg speedWind from/ knotsBaromVisibWave heightAir tempDewpointWater temp
2018-Jul-19 09:01N 38°54' E 001°30'413.2
2018-Jul-19 08:45N 38°57' E 001°32'2 7.1
2018-Jul-19 08:28N 38°59' E 001°32'1 1.4
2018-Jul-19 07:32N 38°59' E 001°34'013.6
2018-Jul-19 07:30N 38°59' E 001°33'1 1.3
2018-Jul-19 06:58N 38°59' E 001°32'0 0.0
2018-Jul-19 06:28N 38°59' E 001°32'0 0.0
2018-Jul-18 17:30N 38°59' E 001°32'1 2.2
2018-Jul-18 16:50N 38°59' E 001°34'8 1.0
2018-Jul-18 09:07N 38°52' E 001°29'214.2
2018-Jul-18 08:59N 38°54' E 001°30'510.5
2018-Jul-18 08:29N 38°59' E 001°32'1 1.8
2018-Jul-18 07:45N 38°59' E 001°34'1 4.6
2018-Jul-18 07:28N 38°59' E 001°32'0 0.0
2018-Jul-17 17:39N 38°59' E 001°32'0 1.5
2018-Jul-17 17:31N 38°59' E 001°32'2 2.7
2018-Jul-17 16:55N 38°59' E 001°34'2 5.5
2018-Jul-17 16:30N 38°58' E 001°32'5 0.7
2018-Jul-17 09:08N 38°53' E 001°29'213.6
2018-Jul-17 09:00N 38°54' E 001°30'5 9.1
2018-Jul-17 08:28N 38°59' E 001°32'1 1.7
2018-Jul-17 07:44N 38°59' E 001°34'1 4.4
2018-Jul-17 07:30N 38°59' E 001°32'0 0.0
2018-Jul-16 19:16N 38°59' E 001°32'0 0.7
2018-Jul-16 18:58N 38°59' E 001°32'1 1.1
2018-Jul-16 18:30N 38°59' E 001°33'1 0.9
2018-Jul-16 17:58N 38°59' E 001°32'0 0.4
2018-Jul-16 17:30N 38°59' E 001°32'0 0.1
2018-Jul-16 17:00N 38°59' E 001°32'0 0.0
2018-Jul-16 16:30N 38°59' E 001°32'0 0.0
2018-Jul-16 16:00N 38°59' E 001°32'0 0.0
2018-Jul-16 15:30N 38°59' E 001°32'0 0.0
2018-Jul-16 15:00N 38°59' E 001°32'0 0.0
2018-Jul-16 14:30N 38°59' E 001°32'0 0.0
2018-Jul-16 14:00N 38°59' E 001°32'0 0.0
2018-Jul-16 13:30N 38°59' E 001°32'0 0.0
2018-Jul-16 13:00N 38°59' E 001°32'0 0.0
2018-Jul-16 12:30N 38°59' E 001°32'0 0.0
2018-Jul-16 12:00N 38°59' E 001°32'0 0.0
2018-Jul-16 11:30N 38°59' E 001°32'0 0.0
2018-Jul-16 10:58N 38°59' E 001°32'0 0.0
2018-Jul-16 10:31N 38°59' E 001°32'0 0.0
2018-Jul-16 10:01N 38°59' E 001°32'0 0.0
2018-Jul-16 09:28N 38°59' E 001°32'0 0.0
2018-Jul-16 08:58N 38°59' E 001°32'0 0.0
2018-Jul-16 08:28N 38°59' E 001°32'0 0.0
2018-Jul-16 07:58N 38°59' E 001°32'0 0.0
2018-Jul-16 07:28N 38°59' E 001°32'0 0.0
2018-Jul-15 17:58N 38°59' E 001°32'6 0.6
2018-Jul-15 08:13N 38°53' E 001°29'413.5
2018-Jul-15 07:56N 38°57' E 001°32'2 4.8
2018-Jul-15 07:30N 38°59' E 001°32'1 1.8
2018-Jul-15 06:51N 38°59' E 001°34'1 3.0
2018-Jul-15 06:30N 38°59' E 001°32'0 0.0
2018-Jul-14 18:10N 38°59' E 001°32'0 1.1
2018-Jul-14 18:00N 38°59' E 001°32'6 8.8
2018-Jul-14 17:19N 38°53' E 001°30'5 0.5
2018-Jul-14 07:38N 38°58' E 001°32'1 8.4
2018-Jul-14 07:30N 38°59' E 001°32'1 2.3
2018-Jul-14 06:50N 38°59' E 001°34'1 3.8
2018-Jul-14 06:29N 38°59' E 001°32'0 0.0
2018-Jul-13 18:11N 38°59' E 001°32'0 1.1
2018-Jul-13 18:00N 38°59' E 001°32'5 7.6
2018-Jul-13 17:24N 38°55' E 001°30'3 0.3
2018-Jul-13 08:20N 38°52' E 001°28'513.9
2018-Jul-13 07:57N 38°57' E 001°32'2 4.5
2018-Jul-13 07:29N 38°59' E 001°32'1 2.4
2018-Jul-13 06:58N 38°59' E 001°34'1 0.1
2018-Jul-12 18:08N 38°59' E 001°32'0 1.2
2018-Jul-12 17:59N 38°59' E 001°32'8 0.8
2018-Jul-12 08:21N 38°52' E 001°28'6 9.3
2018-Jul-12 07:42N 38°57' E 001°32'2 7.2
2018-Jul-12 07:28N 38°59' E 001°32'2 1.6
2018-Jul-12 06:29N 38°59' E 001°34'1 2.9
2018-Jul-12 06:00N 38°59' E 001°32'0 0.0
2018-Jul-11 18:09N 38°59' E 001°32'0 1.3
2018-Jul-11 18:00N 38°59' E 001°32'5 8.5
2018-Jul-11 17:25N 38°54' E 001°30'2 0.3
2018-Jul-11 08:16N 38°52' E 001°28'514.0
2018-Jul-11 07:54N 38°57' E 001°32'2 5.1
2018-Jul-11 07:29N 38°59' E 001°32'2 3.7
2018-Jul-11 06:59N 38°59' E 001°35'2 3.4
2018-Jul-11 06:29N 38°59' E 001°32'0 0.0
2018-Jul-10 18:10N 38°59' E 001°32'0 1.8
2018-Jul-10 18:00N 38°59' E 001°32'1 0.1
2018-Jul-10 07:45N 38°58' E 001°32'1 5.6
2018-Jul-10 07:30N 38°59' E 001°32'1 1.9
2018-Jul-10 06:45N 38°59' E 001°34'1 4.9
2018-Jul-10 06:30N 38°59' E 001°32'0 0.0
2018-Jul-10 06:00N 38°59' E 001°32'0 0.0
2018-Jul-10 05:30N 38°59' E 001°32'0 0.0
2018-Jul-10 05:00N 38°59' E 001°32'0 0.0
2018-Jul-10 04:30N 38°59' E 001°32'0 0.0
2018-Jul-10 04:00N 38°59' E 001°32'0 0.0
2018-Jul-10 03:30N 38°59' E 001°32'0 0.0
2018-Jul-10 03:00N 38°59' E 001°32'0 0.0
2018-Jul-10 02:30N 38°59' E 001°32'0 0.0
2018-Jul-10 02:00N 38°59' E 001°32'0 0.0
2018-Jul-10 01:30N 38°59' E 001°32'0 0.0
2018-Jul-10 01:00N 38°59' E 001°32'0 0.0
2018-Jul-10 00:30N 38°59' E 001°32'0 0.0
2018-Jul-10 00:00N 38°59' E 001°32'0 0.0
2018-Jul-09 23:30N 38°59' E 001°32'0 0.0
2018-Jul-09 23:00N 38°59' E 001°32'0 0.0
2018-Jul-09 22:30N 38°59' E 001°32'0 0.0
2018-Jul-09 22:00N 38°59' E 001°32'0 0.0
2018-Jul-09 21:30N 38°59' E 001°32'0 0.0
2018-Jul-09 21:00N 38°59' E 001°32'0 0.0
2018-Jul-09 20:27N 38°59' E 001°32'0 0.0
2018-Jul-09 20:00N 38°59' E 001°32'0 0.0
2018-Jul-09 19:30N 38°59' E 001°32'0 0.0
2018-Jul-09 19:00N 38°59' E 001°32'0 0.0
2018-Jul-09 18:30N 38°59' E 001°32'0 0.4
2018-Jul-09 18:00N 38°59' E 001°32'5 8.3
2018-Jul-09 17:21N 38°54' E 001°30'  
Track history (hours):
 
Tides and Currents Weather Stations Pressure Air Temp Water Temp Dewpoint Dewpoint Depression Visibility Wind Speed Wind Dir Waves Ship Positions

Capita Jack

Last reported at 2018-Jul-19 09:01 UTC. Time now 2018-Jul-19 09:49 UTC.
Position N 38°54' E 001°30'.

Length 21 m.

Type: Passenger vessel. MMSI: 224147000.

Date/timePositionNaut miles runAvg speedWind from/ knotsBaromVisibWave heightAir tempDewpointWater temp
2018-Jul-19 09:01N 38°54' E 001°30'413.2
2018-Jul-19 08:45N 38°57' E 001°32'2 7.1
2018-Jul-19 08:28N 38°59' E 001°32'1 1.4
2018-Jul-19 07:32N 38°59' E 001°34'013.6
2018-Jul-19 07:30N 38°59' E 001°33'1 1.3
2018-Jul-19 06:58N 38°59' E 001°32'0 0.0
2018-Jul-19 06:28N 38°59' E 001°32'0 0.0
2018-Jul-18 17:30N 38°59' E 001°32'1 2.2
2018-Jul-18 16:50N 38°59' E 001°34'8 1.0
2018-Jul-18 09:07N 38°52' E 001°29'214.2
2018-Jul-18 08:59N 38°54' E 001°30'510.5
2018-Jul-18 08:29N 38°59' E 001°32'1 1.8
2018-Jul-18 07:45N 38°59' E 001°34'1 4.6
2018-Jul-18 07:28N 38°59' E 001°32'0 0.0
2018-Jul-17 17:39N 38°59' E 001°32'0 1.5
2018-Jul-17 17:31N 38°59' E 001°32'2 2.7
2018-Jul-17 16:55N 38°59' E 001°34'2 5.5
2018-Jul-17 16:30N 38°58' E 001°32'5 0.7
2018-Jul-17 09:08N 38°53' E 001°29'213.6
2018-Jul-17 09:00N 38°54' E 001°30'5 9.1
2018-Jul-17 08:28N 38°59' E 001°32'1 1.7
2018-Jul-17 07:44N 38°59' E 001°34'1 4.4
2018-Jul-17 07:30N 38°59' E 001°32'0 0.0
2018-Jul-16 19:16N 38°59' E 001°32'0 0.7
2018-Jul-16 18:58N 38°59' E 001°32'1 1.1
2018-Jul-16 18:30N 38°59' E 001°33'1 0.9
2018-Jul-16 17:58N 38°59' E 001°32'0 0.4
2018-Jul-16 17:30N 38°59' E 001°32'0 0.1
2018-Jul-16 17:00N 38°59' E 001°32'0 0.0
2018-Jul-16 16:30N 38°59' E 001°32'0 0.0
2018-Jul-16 16:00N 38°59' E 001°32'0 0.0
2018-Jul-16 15:30N 38°59' E 001°32'0 0.0
2018-Jul-16 15:00N 38°59' E 001°32'0 0.0
2018-Jul-16 14:30N 38°59' E 001°32'0 0.0
2018-Jul-16 14:00N 38°59' E 001°32'0 0.0
2018-Jul-16 13:30N 38°59' E 001°32'0 0.0
2018-Jul-16 13:00N 38°59' E 001°32'0 0.0
2018-Jul-16 12:30N 38°59' E 001°32'0 0.0
2018-Jul-16 12:00N 38°59' E 001°32'0 0.0
2018-Jul-16 11:30N 38°59' E 001°32'0 0.0
2018-Jul-16 10:58N 38°59' E 001°32'0 0.0
2018-Jul-16 10:31N 38°59' E 001°32'0 0.0
2018-Jul-16 10:01N 38°59' E 001°32'0 0.0
2018-Jul-16 09:28N 38°59' E 001°32'0 0.0
2018-Jul-16 08:58N 38°59' E 001°32'0 0.0
2018-Jul-16 08:28N 38°59' E 001°32'0 0.0
2018-Jul-16 07:58N 38°59' E 001°32'0 0.0
2018-Jul-16 07:28N 38°59' E 001°32'0 0.0
2018-Jul-15 17:58N 38°59' E 001°32'6 0.6
2018-Jul-15 08:13N 38°53' E 001°29'413.5
2018-Jul-15 07:56N 38°57' E 001°32'2 4.8
2018-Jul-15 07:30N 38°59' E 001°32'1 1.8
2018-Jul-15 06:51N 38°59' E 001°34'1 3.0
2018-Jul-15 06:30N 38°59' E 001°32'0 0.0
2018-Jul-14 18:10N 38°59' E 001°32'0 1.1
2018-Jul-14 18:00N 38°59' E 001°32'6 8.8
2018-Jul-14 17:19N 38°53' E 001°30'5 0.5
2018-Jul-14 07:38N 38°58' E 001°32'1 8.4
2018-Jul-14 07:30N 38°59' E 001°32'1 2.3
2018-Jul-14 06:50N 38°59' E 001°34'1 3.8
2018-Jul-14 06:29N 38°59' E 001°32'0 0.0
2018-Jul-13 18:11N 38°59' E 001°32'0 1.1
2018-Jul-13 18:00N 38°59' E 001°32'5 7.6
2018-Jul-13 17:24N 38°55' E 001°30'3 0.3
2018-Jul-13 08:20N 38°52' E 001°28'513.9
2018-Jul-13 07:57N 38°57' E 001°32'2 4.5
2018-Jul-13 07:29N 38°59' E 001°32'1 2.4
2018-Jul-13 06:58N 38°59' E 001°34'1 0.1
2018-Jul-12 18:08N 38°59' E 001°32'0 1.2
2018-Jul-12 17:59N 38°59' E 001°32'8 0.8
2018-Jul-12 08:21N 38°52' E 001°28'6 9.3
2018-Jul-12 07:42N 38°57' E 001°32'2 7.2
2018-Jul-12 07:28N 38°59' E 001°32'2 1.6
2018-Jul-12 06:29N 38°59' E 001°34'1 2.9
2018-Jul-12 06:00N 38°59' E 001°32'0 0.0
2018-Jul-11 18:09N 38°59' E 001°32'0 1.3
2018-Jul-11 18:00N 38°59' E 001°32'5 8.5
2018-Jul-11 17:25N 38°54' E 001°30'2 0.3
2018-Jul-11 08:16N 38°52' E 001°28'514.0
2018-Jul-11 07:54N 38°57' E 001°32'2 5.1
2018-Jul-11 07:29N 38°59' E 001°32'2 3.7
2018-Jul-11 06:59N 38°59' E 001°35'2 3.4
2018-Jul-11 06:29N 38°59' E 001°32'0 0.0
2018-Jul-10 18:10N 38°59' E 001°32'0 1.8
2018-Jul-10 18:00N 38°59' E 001°32'1 0.1
2018-Jul-10 07:45N 38°58' E 001°32'1 5.6
2018-Jul-10 07:30N 38°59' E 001°32'1 1.9
2018-Jul-10 06:45N 38°59' E 001°34'1 4.9
2018-Jul-10 06:30N 38°59' E 001°32'0 0.0
2018-Jul-10 06:00N 38°59' E 001°32'0 0.0
2018-Jul-10 05:30N 38°59' E 001°32'0 0.0
2018-Jul-10 05:00N 38°59' E 001°32'0 0.0
2018-Jul-10 04:30N 38°59' E 001°32'0 0.0
2018-Jul-10 04:00N 38°59' E 001°32'0 0.0
2018-Jul-10 03:30N 38°59' E 001°32'0 0.0
2018-Jul-10 03:00N 38°59' E 001°32'0 0.0
2018-Jul-10 02:30N 38°59' E 001°32'0 0.0
2018-Jul-10 02:00N 38°59' E 001°32'0 0.0
2018-Jul-10 01:30N 38°59' E 001°32'0 0.0
2018-Jul-10 01:00N 38°59' E 001°32'0 0.0
2018-Jul-10 00:30N 38°59' E 001°32'0 0.0
2018-Jul-10 00:00N 38°59' E 001°32'0 0.0
2018-Jul-09 23:30N 38°59' E 001°32'0 0.0
2018-Jul-09 23:00N 38°59' E 001°32'0 0.0
2018-Jul-09 22:30N 38°59' E 001°32'0 0.0
2018-Jul-09 22:00N 38°59' E 001°32'0 0.0
2018-Jul-09 21:30N 38°59' E 001°32'0 0.0
2018-Jul-09 21:00N 38°59' E 001°32'0 0.0
2018-Jul-09 20:27N 38°59' E 001°32'0 0.0
2018-Jul-09 20:00N 38°59' E 001°32'0 0.0
2018-Jul-09 19:30N 38°59' E 001°32'0 0.0
2018-Jul-09 19:00N 38°59' E 001°32'0 0.0
2018-Jul-09 18:30N 38°59' E 001°32'0 0.4
2018-Jul-09 18:00N 38°59' E 001°32'5 8.3
2018-Jul-09 17:21N 38°54' E 001°30'  

Dump ship's entire track history